Time;durP1;ratioP1;P1;durP2;ratioP2;P2;SDS_P1;SDS_P2;PMS_P1;PMS_P2;Temp;Humidity;BMP_temperature;BMP_pressure;BME280_temperature;BME280_humidity;BME280_pressure;Samples;Min_cycle;Max_cycle;Signal;HPM_P1;HPM_P2
2022/06/20 00:01:19;;;;;;;14.35;4.72;;;;;;;16.37;66.60;99323.63;5021075;28;20119;-52
2022/06/20 00:03:48;;;;;;;10.52;5.03;;;;;;;16.48;66.42;99315.59;5008518;28;20428;-53
2022/06/20 00:06:17;;;;;;;9.63;4.53;;;;;;;16.40;66.29;99315.38;5017351;28;20466;-72
2022/06/20 00:08:44;;;;;;;11.80;5.03;;;;;;;16.26;66.96;99324.47;5016561;28;20421;-72
2022/06/20 00:11:13;;;;;;;11.70;4.65;;;;;;;16.02;67.74;99324.63;5009971;28;20050;-72
2022/06/20 00:13:43;;;;;;;10.55;4.80;;;;;;;15.85;68.71;99325.09;5021277;28;20685;-71
2022/06/20 00:16:12;;;;;;;10.82;5.00;;;;;;;15.84;68.29;99326.91;4993800;28;20551;-73
2022/06/20 00:18:39;;;;;;;10.77;5.88;;;;;;;15.81;68.67;99332.47;5024370;28;20045;-73
2022/06/20 00:21:12;;;;;;;13.40;6.32;;;;;;;15.75;68.75;99330.31;5024096;28;20060;-73
2022/06/20 00:23:38;;;;;;;12.50;6.45;;;;;;;15.66;69.37;99315.88;5008376;28;20053;-74
2022/06/20 00:26:05;;;;;;;9.65;6.15;;;;;;;15.64;69.43;99322.28;5018193;28;20053;-72
2022/06/20 00:28:32;;;;;;;13.55;7.45;;;;;;;15.67;69.97;99338.81;5014216;28;20057;-72
2022/06/20 00:30:58;;;;;;;15.68;7.75;;;;;;;15.61;69.12;99365.88;5023999;28;20050;-72
2022/06/20 00:33:25;;;;;;;8.60;6.55;;;;;;;15.57;69.15;99390.97;5019855;28;20064;-71
2022/06/20 00:35:53;;;;;;;12.95;7.72;;;;;;;15.57;70.50;99420.22;5024124;28;20160;-72
2022/06/20 00:38:23;;;;;;;10.52;7.50;;;;;;;15.66;71.82;99448.75;5016519;28;20057;-72
2022/06/20 00:40:52;;;;;;;14.02;7.32;;;;;;;15.70;71.93;99459.16;5016380;28;20064;-72
2022/06/20 00:43:23;;;;;;;9.13;7.05;;;;;;;15.69;71.99;99479.56;5015972;28;20505;-71
2022/06/20 00:45:54;;;;;;;13.48;7.13;;;;;;;15.61;71.36;99513.84;5023416;28;20045;-72
2022/06/20 00:48:26;;;;;;;9.32;6.90;;;;;;;15.54;73.02;99525.88;5023609;28;20059;-72
2022/06/20 00:50:58;;;;;;;11.60;7.60;;;;;;;15.52;72.80;99526.00;5009165;28;20056;-71
2022/06/20 00:53:33;;;;;;;12.57;9.48;;;;;;;15.58;74.38;99519.34;5020518;28;20049;-71
2022/06/20 00:56:03;;;;;;;16.17;8.57;;;;;;;15.59;75.75;99507.78;5009019;28;20053;-72
2022/06/20 00:58:34;;;;;;;16.33;8.90;;;;;;;15.49;74.17;99512.09;5014309;28;20046;-72
2022/06/20 01:01:01;;;;;;;13.05;8.50;;;;;;;15.41;74.60;99494.91;4981569;28;20045;-72
2022/06/20 01:03:38;;;;;;;13.38;8.00;;;;;;;15.36;74.86;99488.25;5022323;28;20057;-72
2022/06/20 01:06:09;;;;;;;16.38;10.90;;;;;;;15.30;75.96;99481.56;5009814;28;20050;-71
2022/06/20 01:08:43;;;;;;;15.02;10.43;;;;;;;15.27;76.74;99483.63;5023425;28;20055;-71
2022/06/20 01:11:17;;;;;;;18.60;13.43;;;;;;;15.20;78.31;99462.81;5008927;28;20054;-72
2022/06/20 01:13:44;;;;;;;13.07;11.30;;;;;;;15.07;78.24;99450.56;5019709;28;20050;-72
2022/06/20 01:16:26;;;;;;;17.13;11.00;;;;;;;15.00;77.95;99444.84;5010196;28;20059;-72
2022/06/20 01:18:54;;;;;;;14.43;10.93;;;;;;;14.92;79.23;99425.97;5023019;28;20045;-73
2022/06/20 01:21:25;;;;;;;22.58;16.35;;;;;;;14.82;80.86;99391.31;5023143;28;20050;-71
2022/06/20 01:24:01;;;;;;;25.58;16.98;;;;;;;14.79;83.39;99368.50;5007774;28;20049;-71
2022/06/20 01:26:39;;;;;;;24.42;17.08;;;;;;;14.70;82.69;99339.13;5022769;28;20085;-71
2022/06/20 01:29:10;;;;;;;20.60;15.75;;;;;;;14.66;84.07;99319.06;4994843;28;20050;-71
2022/06/20 01:31:41;;;;;;;25.02;18.50;;;;;;;14.58;85.05;99286.00;5023298;28;20084;-71
2022/06/20 01:34:08;;;;;;;23.98;17.92;;;;;;;14.57;85.71;99259.56;5022784;28;20052;-71
2022/06/20 01:39:25;;;;;;;23.85;18.67;;;;;;;14.34;86.30;99179.03;5022521;28;20512;-71
2022/06/20 01:44:39;;;;;;;22.50;16.00;;;;;;;14.36;87.16;99092.28;5013396;28;20139;-72
2022/06/20 01:47:06;;;;;;;24.20;16.17;;;;;;;14.22;86.91;99071.25;5019820;28;20059;-72
2022/06/20 01:49:34;;;;;;;22.45;14.10;;;;;;;14.12;87.34;99047.25;5022877;28;20057;-71
2022/06/20 01:52:07;;;;;;;19.92;14.35;;;;;;;14.07;87.54;99033.50;5023151;28;20054;-71
2022/06/20 01:54:39;;;;;;;17.05;12.48;;;;;;;14.04;88.10;99033.75;5013464;28;20060;-71
2022/06/20 01:57:10;;;;;;;17.80;14.23;;;;;;;14.09;89.15;99028.94;5001143;28;20056;-71
2022/06/20 01:59:45;;;;;;;22.40;12.60;;;;;;;14.14;87.24;99032.09;5022594;28;20060;-71
2022/06/20 02:02:12;;;;;;;18.98;11.20;;;;;;;14.10;85.12;99023.53;5016373;28;20049;-71
2022/06/20 02:04:40;;;;;;;18.48;12.02;;;;;;;13.99;84.94;99014.69;5003892;28;20045;-71
2022/06/20 02:07:10;;;;;;;18.35;10.43;;;;;;;13.92;84.82;99009.84;5003395;28;20048;-71
2022/06/20 02:09:37;;;;;;;12.18;9.60;;;;;;;13.94;86.29;99037.06;5022422;28;20052;-72
2022/06/20 02:12:06;;;;;;;14.23;8.25;;;;;;;13.95;85.64;99052.03;5011628;28;20055;-71
2022/06/20 02:14:36;;;;;;;20.55;9.60;;;;;;;13.89;85.20;99054.28;5015235;28;20136;-71
2022/06/20 02:17:12;;;;;;;16.80;10.38;;;;;;;13.75;84.79;99042.06;5016984;28;20050;-71
2022/06/20 02:19:41;;;;;;;;;;;;;;;13.80;86.16;99053.16;5021781;28;20180;-71
2022/06/20 02:22:10;;;;;;;15.43;8.98;;;;;;;13.74;85.54;99072.16;5021876;28;20030;-71
2022/06/20 02:24:40;;;;;;;14.52;8.23;;;;;;;13.63;83.55;99080.03;5012332;28;20123;-71
2022/06/20 02:27:13;;;;;;;19.40;8.98;;;;;;;13.65;84.10;99094.03;5016862;28;20041;-71
2022/06/20 02:29:40;;;;;;;15.50;8.93;;;;;;;13.59;84.62;99099.78;5010408;28;20124;-71
2022/06/20 02:32:12;;;;;;;23.38;9.60;;;;;;;13.59;85.35;99107.72;5021948;28;20048;-71
2022/06/20 02:34:39;;;;;;;16.88;10.77;;;;;;;13.61;84.90;99119.03;5022713;28;20059;-71
2022/06/20 02:37:14;;;;;;;15.30;11.00;;;;;;;13.52;85.58;99112.63;5016981;28;20049;-71
2022/06/20 02:39:42;;;;;;;21.15;10.73;;;;;;;13.42;85.83;99107.13;5030447;28;20131;-71
2022/06/20 02:42:15;;;;;;;16.75;11.32;;;;;;;13.38;86.15;99116.25;5018634;28;20473;-71
2022/06/20 02:44:43;;;;;;;12.95;11.65;;;;;;;13.37;85.87;99113.72;5022761;28;20050;-71
2022/06/20 02:47:12;;;;;;;14.23;11.98;;;;;;;13.31;86.76;99104.41;5021970;28;20132;-71
2022/06/20 02:49:40;;;;;;;23.55;13.68;;;;;;;13.23;86.06;99082.91;5022266;28;20049;-71
2022/06/20 02:52:09;;;;;;;17.27;13.00;;;;;;;13.24;87.18;99077.50;5022421;28;20053;-72
2022/06/20 02:54:38;;;;;;;18.02;13.75;;;;;;;13.25;86.76;99084.47;5012002;28;20501;-71
2022/06/20 02:57:12;;;;;;;17.35;13.07;;;;;;;13.16;86.71;99082.47;5016422;28;20052;-72
2022/06/20 02:59:46;;;;;;;16.50;11.98;;;;;;;13.29;88.55;99072.75;5011548;28;20050;-72
2022/06/20 03:02:16;;;;;;;16.88;14.43;;;;;;;13.22;86.66;99081.22;5022278;28;20057;-72
2022/06/20 03:04:45;;;;;;;14.80;13.00;;;;;;;13.33;86.80;99110.44;5011366;28;20082;-73
2022/06/20 03:07:15;;;;;;;21.65;16.55;;;;;;;13.36;86.93;99136.69;5016988;28;20057;-74
2022/06/20 03:09:44;;;;;;;17.83;13.43;;;;;;;13.39;86.04;99175.34;5005398;28;20057;-74
2022/06/20 03:12:12;;;;;;;17.58;13.10;;;;;;;13.41;86.32;99197.25;5015436;28;20054;-73
2022/06/20 03:14:43;;;;;;;16.13;12.07;;;;;;;13.46;85.84;99211.03;5012352;28;20543;-73
2022/06/20 03:17:10;;;;;;;14.32;12.68;;;;;;;13.53;85.44;99234.31;5007245;28;20076;-73
2022/06/20 03:19:45;;;;;;;19.92;15.93;;;;;;;13.62;84.88;99237.28;5021618;28;20160;-73
2022/06/20 03:22:15;;;;;;;19.80;15.70;;;;;;;13.65;86.35;99248.50;5015149;28;20050;-74
2022/06/20 03:24:43;;;;;;;15.23;13.13;;;;;;;13.72;85.22;99240.97;5014440;28;20045;-74
2022/06/20 03:27:14;;;;;;;16.42;13.38;;;;;;;13.74;83.47;99255.81;5010473;28;20054;-73
2022/06/20 03:29:44;;;;;;;19.13;13.40;;;;;;;13.75;83.73;99261.94;5024566;28;20045;-73
2022/06/20 03:32:11;;;;;;;16.17;13.80;;;;;;;13.80;83.21;99291.59;5018899;28;20046;-73
2022/06/20 03:34:37;;;;;;;20.15;14.93;;;;;;;13.86;84.05;99307.09;5024624;28;20054;-73
2022/06/20 03:37:07;;;;;;;22.10;17.13;;;;;;;13.92;84.73;99321.69;5025160;28;20068;-73
2022/06/20 03:39:35;;;;;;;19.38;16.20;;;;;;;13.94;84.21;99344.47;5015470;28;20516;-72
2022/06/20 03:42:03;;;;;;;17.63;14.93;;;;;;;13.94;84.20;99378.09;5011359;28;20045;-72
2022/06/20 03:44:33;;;;;;;21.52;15.60;;;;;;;13.95;84.18;99398.31;5016003;28;20045;-73
2022/06/20 03:47:05;;;;;;;21.75;19.33;;;;;;;13.98;83.69;99381.34;5018609;28;20053;-72
2022/06/20 03:49:36;;;;;;;21.38;17.88;;;;;;;13.95;83.96;99383.28;4992651;28;20045;-73
2022/06/20 03:52:08;;;;;;;20.85;16.23;;;;;;;13.98;84.96;99394.63;5019729;28;20049;-73
2022/06/20 03:54:44;;;;;;;21.58;17.70;;;;;;;14.00;85.55;99398.84;5015554;28;20053;-74
2022/06/20 03:57:16;;;;;;;18.02;16.15;;;;;;;14.01;85.53;99397.06;5010738;28;20057;-74
2022/06/20 03:59:47;;;;;;;29.30;23.60;;;;;;;14.04;86.39;99387.09;5022373;28;20053;-74
2022/06/20 04:02:19;;;;;;;18.30;16.35;;;;;;;14.07;86.76;99381.56;5012121;28;20050;-74
2022/06/20 04:04:52;;;;;;;21.40;18.02;;;;;;;14.02;85.07;99378.41;5013503;28;20063;-72
2022/06/20 04:07:24;;;;;;;20.23;18.02;;;;;;;13.84;83.51;99369.09;5020951;28;20055;-73
2022/06/20 04:12:49;;;;;;;23.63;20.85;;;;;;;13.72;84.88;99362.84;5024707;28;20056;-73
2022/06/20 04:15:19;;;;;;;22.90;20.25;;;;;;;13.79;85.66;99355.31;5010572;28;20050;-73
2022/06/20 04:20:42;;;;;;;25.27;19.73;;;;;;;13.67;85.74;99357.00;5024559;28;20599;-73
2022/06/20 04:23:15;;;;;;;24.40;20.58;;;;;;;13.61;85.34;99360.06;5009819;28;20080;-72
2022/06/20 04:25:46;;;;;;;21.95;18.55;;;;;;;13.48;84.91;99358.25;5020733;28;21089;-72
2022/06/20 04:28:19;;;;;;;25.58;17.48;;;;;;;13.48;85.08;99357.41;5011191;28;20057;-72
2022/06/20 04:30:51;;;;;;;18.77;16.65;;;;;;;13.46;85.13;99364.59;5024247;28;20045;-72
2022/06/20 04:33:23;;;;;;;19.40;15.82;;;;;;;13.46;85.53;99352.22;5021824;28;20056;-72
2022/06/20 04:36:11;;;;;;;14.20;12.73;;;;;;;13.52;84.73;99353.59;5016093;28;20045;-72
2022/06/20 04:38:45;;;;;;;18.58;14.07;;;;;;;13.48;83.46;99354.75;5005082;28;20053;-73
2022/06/20 04:41:18;;;;;;;21.70;12.30;;;;;;;13.30;82.25;99351.56;5021282;28;20447;-72
2022/06/20 04:43:51;;;;;;;22.30;12.25;;;;;;;13.19;82.77;99354.03;5015495;28;20517;-73
2022/06/20 04:46:23;;;;;;;16.67;10.38;;;;;;;13.18;83.17;99357.66;5005387;28;20045;-72
2022/06/20 04:48:51;;;;;;;15.52;12.05;;;;;;;13.21;83.82;99353.00;5011874;28;20056;-72
2022/06/20 04:51:20;;;;;;;15.57;10.38;;;;;;;13.20;84.18;99346.00;5010890;28;20060;-72
2022/06/20 04:53:50;;;;;;;13.20;9.65;;;;;;;13.23;84.80;99335.22;5007693;28;20444;-72
2022/06/20 04:56:26;;;;;;;17.45;11.40;;;;;;;13.25;85.43;99329.81;5023402;28;20053;-72
2022/06/20 04:58:57;;;;;;;15.43;10.55;;;;;;;13.16;84.77;99320.69;5011916;28;20132;-71
2022/06/20 05:01:24;;;;;;;20.77;11.10;;;;;;;13.17;85.38;99310.94;5020648;28;20523;-72
2022/06/20 05:03:57;;;;;;;14.73;10.45;;;;;;;13.12;85.78;99308.63;5008170;28;20057;-72
2022/06/20 05:06:27;;;;;;;14.68;8.27;;;;;;;13.16;85.32;99315.41;5023320;28;20053;-72
2022/06/20 05:08:59;;;;;;;16.30;8.63;;;;;;;13.17;85.47;99306.53;5010924;28;20052;-72
2022/06/20 05:11:32;;;;;;;15.95;8.27;;;;;;;13.27;86.39;99309.44;5020543;28;20064;-72
2022/06/20 05:14:04;;;;;;;12.18;8.05;;;;;;;13.17;83.07;99321.53;5018169;28;20775;-72
2022/06/20 05:16:34;;;;;;;16.50;9.25;;;;;;;13.20;84.73;99329.28;5013099;28;20049;-72
2022/06/20 05:19:07;;;;;;;13.35;8.93;;;;;;;13.17;84.43;99321.53;5023287;28;20041;-72
2022/06/20 05:21:39;;;;;;;10.85;8.50;;;;;;;13.28;85.00;99324.34;5021641;28;20052;-73
2022/06/20 05:24:13;;;;;;;9.32;6.75;;;;;;;13.30;83.62;99331.22;5010302;28;20049;-73
2022/06/20 05:26:43;;;;;;;10.25;7.13;;;;;;;13.32;83.99;99341.72;5022452;28;20049;-73
2022/06/20 05:29:15;;;;;;;17.02;8.32;;;;;;;13.39;84.29;99326.25;5022658;28;20053;-72
2022/06/20 05:31:44;;;;;;;14.07;7.63;;;;;;;13.48;84.28;99331.78;5019824;28;20053;-73
2022/06/20 05:34:16;;;;;;;12.73;8.80;;;;;;;13.57;83.89;99334.75;5010017;28;20049;-72
2022/06/20 05:36:49;;;;;;;14.40;8.20;;;;;;;13.53;82.45;99334.94;5011768;28;20076;-72
2022/06/20 05:39:23;;;;;;;16.90;9.35;;;;;;;13.51;82.97;99336.88;5019023;28;20053;-73
2022/06/20 05:41:50;;;;;;;11.95;7.68;;;;;;;13.46;83.54;99333.69;5006974;28;20501;-72
2022/06/20 05:44:17;;;;;;;13.05;8.07;;;;;;;13.70;82.61;99340.88;5023346;28;20139;-53
2022/06/20 05:46:48;;;;;;;11.63;7.55;;;;;;;13.92;81.07;99335.78;5011013;28;20103;-55
2022/06/20 05:49:19;;;;;;;10.57;6.35;;;;;;;14.24;79.75;99350.38;5018730;28;20052;-52
2022/06/20 05:51:47;;;;;;;13.98;8.73;;;;;;;14.30;80.26;99366.69;5006791;28;20449;-54
2022/06/20 05:54:18;;;;;;;13.32;6.80;;;;;;;14.28;80.76;99371.25;4998174;28;20045;-53
2022/06/20 05:56:49;;;;;;;8.77;7.32;;;;;;;14.26;80.83;99380.28;4996873;28;20057;-57
2022/06/20 05:59:31;;;;;;;11.43;6.68;;;;;;;14.33;79.42;99381.53;4979590;28;20165;-54
2022/06/20 06:02:01;;;;;;;11.25;6.60;;;;;;;14.33;80.12;99392.16;5008019;28;20130;-55
2022/06/20 06:04:34;;;;;;;13.85;6.68;;;;;;;14.47;78.95;99384.06;5022558;28;20049;-55
2022/06/20 06:07:06;;;;;;;11.95;5.40;;;;;;;14.58;77.87;99383.31;5009338;28;20056;-56
2022/06/20 06:09:42;;;;;;;12.05;6.00;;;;;;;14.65;77.69;99375.75;5019602;28;20049;-55
2022/06/20 06:12:15;;;;;;;13.27;5.82;;;;;;;14.73;76.86;99381.34;5009982;28;20061;-56
2022/06/20 06:14:47;;;;;;;9.13;5.25;;;;;;;14.74;77.09;99397.16;5012683;28;20972;-56
2022/06/20 06:17:20;;;;;;;9.85;5.22;;;;;;;14.67;76.82;99406.53;5017980;28;20050;-55
2022/06/20 06:19:51;;;;;;;9.88;4.43;;;;;;;14.60;77.18;99413.22;5022601;28;20045;-57
2022/06/20 06:22:21;;;;;;;7.82;4.72;;;;;;;14.67;77.03;99425.09;5022120;28;20060;-52
2022/06/20 06:24:49;;;;;;;9.10;5.68;;;;;;;14.65;75.95;99421.72;5022117;28;20053;-57
2022/06/20 06:27:23;;;;;;;10.32;5.10;;;;;;;14.75;75.77;99417.44;5018107;28;20086;-56
2022/06/20 06:29:55;;;;;;;8.13;4.70;;;;;;;14.74;74.91;99414.88;5019669;28;20049;-73
2022/06/20 06:32:30;;;;;;;12.32;4.53;;;;;;;14.45;76.60;99416.94;5023887;28;20484;-71
2022/06/20 06:35:03;;;;;;;12.63;5.03;;;;;;;14.19;78.59;99416.97;5028834;28;20566;-72
2022/06/20 06:37:39;;;;;;;10.93;6.03;;;;;;;13.96;77.98;99415.94;5006010;28;20054;-75
2022/06/20 06:40:13;;;;;;;11.63;4.72;;;;;;;13.88;79.77;99412.94;5016160;28;20121;-72
2022/06/20 06:42:42;;;;;;;9.82;4.63;;;;;;;13.87;80.03;99432.47;5021325;28;20124;-71
2022/06/20 06:45:17;;;;;;;12.10;4.97;;;;;;;13.88;80.26;99448.28;4991118;28;20129;-71
2022/06/20 06:47:50;;;;;;;7.05;4.13;;;;;;;13.82;79.86;99438.06;5021163;28;20060;-71
2022/06/20 06:50:27;;;;;;;10.63;4.68;;;;;;;13.77;80.25;99442.00;5023787;28;20053;-71
2022/06/20 06:53:00;;;;;;;11.98;4.60;;;;;;;13.60;80.89;99432.53;5022065;28;20113;-70
2022/06/20 06:55:33;;;;;;;13.70;4.25;;;;;;;13.61;82.80;99447.47;5009465;28;20060;-72
2022/06/20 06:58:07;;;;;;;18.83;6.57;;;;;;;13.69;83.95;99472.50;5021437;28;20048;-72
2022/06/20 07:00:38;;;;;;;11.60;5.38;;;;;;;13.57;81.58;99456.59;5015410;28;20057;-73
2022/06/20 07:03:11;;;;;;;14.25;5.47;;;;;;;13.47;82.25;99462.50;5020128;28;20052;-74
2022/06/20 07:05:42;;;;;;;15.38;6.88;;;;;;;13.38;82.79;99460.44;5009722;28;20054;-73
2022/06/20 07:08:13;;;;;;;9.93;4.88;;;;;;;13.43;83.70;99460.16;5023190;28;20068;-74
2022/06/20 07:10:48;;;;;;;12.32;6.07;;;;;;;13.41;83.68;99449.66;5025543;28;20519;-73
2022/06/20 07:13:23;;;;;;;15.45;5.47;;;;;;;13.32;85.33;99445.81;5010003;28;20140;-73
2022/06/20 07:15:54;;;;;;;17.52;5.82;;;;;;;13.35;85.69;99442.13;4997483;28;20046;-73
2022/06/20 07:18:35;;;;;;;11.32;5.28;;;;;;;13.45;85.56;99459.09;5022968;28;20052;-71
2022/06/20 07:21:03;;;;;;;8.63;4.63;;;;;;;13.47;84.17;99461.66;5029044;28;20048;-72
2022/06/20 07:23:29;;;;;;;10.18;5.13;;;;;;;13.44;83.39;99460.06;5014198;28;20050;-73
2022/06/20 07:25:57;;;;;;;13.48;5.00;;;;;;;13.46;83.66;99463.47;4981810;28;20052;-74
2022/06/20 07:28:34;;;;;;;12.35;5.20;;;;;;;13.48;82.54;99477.41;4986149;28;20074;-74
2022/06/20 07:31:09;;;;;;;12.02;6.45;;;;;;;13.38;81.57;99478.97;5020150;28;20203;-73
2022/06/20 07:33:42;;;;;;;13.27;3.93;;;;;;;13.47;81.96;99483.69;5043980;28;20047;-72
2022/06/20 07:36:11;;;;;;;20.80;5.95;;;;;;;13.45;79.74;99495.31;5031005;28;20276;-73
2022/06/20 07:38:43;;;;;;;8.63;3.47;;;;;;;13.48;80.90;99516.31;4995741;28;20049;-71
2022/06/20 07:41:15;;;;;;;8.98;4.10;;;;;;;13.56;80.76;99518.44;5034024;28;20052;-71
2022/06/20 07:43:47;;;;;;;15.23;4.32;;;;;;;13.62;81.21;99518.06;5013451;28;20048;-72
2022/06/20 07:46:17;;;;;;;15.20;5.75;;;;;;;13.63;81.47;99536.47;5032161;28;20049;-72
2022/06/20 07:48:48;;;;;;;16.58;4.82;;;;;;;13.61;80.12;99534.88;5035439;28;20507;-71
2022/06/20 07:51:19;;;;;;;10.52;5.47;;;;;;;13.67;82.12;99537.13;5025825;28;20049;-71
2022/06/20 07:53:50;;;;;;;14.95;4.65;;;;;;;13.69;80.46;99546.69;5038446;28;20511;-72
2022/06/20 07:56:22;;;;;;;19.05;4.97;;;;;;;13.69;80.84;99546.69;5010777;28;20049;-72
2022/06/20 07:58:54;;;;;;;11.65;5.35;;;;;;;13.67;82.12;99547.72;5029398;28;20045;-69
2022/06/20 08:01:28;;;;;;;16.90;5.63;;;;;;;13.70;79.58;99548.38;5041617;28;20051;-72
2022/06/20 08:04:00;;;;;;;14.65;3.88;;;;;;;13.77;79.46;99558.56;5009563;28;20067;-69
2022/06/20 08:06:32;;;;;;;11.02;4.40;;;;;;;13.81;79.38;99555.63;5029890;28;20056;-71
2022/06/20 08:09:03;;;;;;;13.02;5.63;;;;;;;13.89;80.70;99561.25;5030870;28;20140;-72
2022/06/20 08:11:41;;;;;;;15.60;4.75;;;;;;;13.88;79.31;99559.56;5040632;28;20580;-70
2022/06/20 08:14:17;;;;;;;14.05;6.57;;;;;;;13.98;79.78;99556.28;5026122;28;20071;-70
2022/06/20 08:16:47;;;;;;;18.38;5.53;;;;;;;14.13;77.24;99560.56;5024756;28;20148;-70
2022/06/20 08:19:14;;;;;;;11.90;4.82;;;;;;;14.24;76.37;99543.94;5031188;28;20045;-71
2022/06/20 08:21:44;;;;;;;19.13;5.10;;;;;;;14.40;78.06;99539.28;5029916;28;20057;-70
2022/06/20 08:24:18;;;;;;;11.15;3.97;;;;;;;14.55;77.43;99540.06;5038259;28;20049;-71
2022/06/20 08:26:51;;;;;;;22.10;5.43;;;;;;;14.57;74.86;99538.13;5031637;28;20565;-71
2022/06/20 08:29:25;;;;;;;12.95;6.00;;;;;;;14.70;76.41;99532.81;5028266;28;20670;-71
2022/06/20 08:31:53;;;;;;;13.38;5.15;;;;;;;14.81;73.35;99536.38;5000170;28;20041;-71
2022/06/20 08:34:26;;;;;;;13.75;4.28;;;;;;;14.85;70.84;99550.31;5029017;28;20420;-72
2022/06/20 08:36:58;;;;;;;5.95;3.88;;;;;;;15.04;71.54;99547.22;5028364;28;20042;-71
2022/06/20 08:39:29;;;;;;;22.15;5.53;;;;;;;15.37;73.31;99543.91;5037472;28;20051;-71
2022/06/20 08:42:24;;;;;;;12.43;3.60;;;;;;;15.41;68.68;99558.66;5019133;28;20485;-71
2022/06/20 08:45:09;;;;;;;12.73;4.32;;;;;;;15.36;69.91;99567.94;5016592;28;20045;-71
2022/06/20 08:48:09;;;;;;;23.73;4.60;;;;;;;15.45;70.85;99596.47;5007692;28;20045;-71
2022/06/20 08:51:06;;;;;;;14.90;4.88;;;;;;;15.54;72.03;99593.16;5014532;28;20049;-71
2022/06/20 08:54:14;;;;;;;15.68;4.50;;;;;;;15.66;68.86;99591.41;5020685;28;20045;-71
2022/06/20 08:56:55;;;;;;;10.73;3.85;;;;;;;15.65;70.48;99598.53;5014520;28;20053;-71
2022/06/20 08:59:53;;;;;;;17.10;4.95;;;;;;;15.66;68.86;99602.03;5007381;28;20533;-71
2022/06/20 09:02:37;;;;;;;6.85;3.05;;;;;;;15.68;66.15;99605.44;5015959;28;20054;-71
2022/06/20 09:05:22;;;;;;;7.38;3.13;;;;;;;15.74;65.61;99610.31;5031848;28;20045;-71
2022/06/20 09:08:16;;;;;;;9.38;4.00;;;;;;;15.70;66.69;99608.84;5007503;28;20080;-70
2022/06/20 09:11:00;;;;;;;8.20;3.70;;;;;;;15.52;64.36;99602.19;5022822;28;20119;-71
2022/06/20 09:13:52;;;;;;;7.00;3.55;;;;;;;15.52;66.12;99597.72;5023482;28;20069;-71
2022/06/20 09:16:27;;;;;;;4.40;2.65;;;;;;;15.57;66.90;99592.91;5014459;28;20128;-70
2022/06/20 09:19:08;;;;;;;9.60;4.13;;;;;;;15.59;66.19;99592.81;5023237;28;20045;-70
2022/06/20 09:21:46;;;;;;;11.45;4.72;;;;;;;15.54;67.87;99592.31;5010557;28;20704;-71
2022/06/20 09:24:24;;;;;;;7.43;4.43;;;;;;;15.52;66.58;99592.41;5011040;28;20132;-71
2022/06/20 09:26:59;;;;;;;10.43;3.90;;;;;;;15.53;67.35;99598.56;4995984;28;20057;-71
2022/06/20 09:29:43;;;;;;;7.95;3.35;;;;;;;15.49;65.06;99597.13;5015766;28;20435;-71
2022/06/20 09:32:43;;;;;;;7.90;3.60;;;;;;;15.51;66.45;99598.69;5009671;28;20066;-71
2022/06/20 09:35:32;;;;;;;7.13;3.92;;;;;;;15.56;67.20;99598.38;4976235;28;20127;-71
2022/06/20 09:38:12;;;;;;;8.45;3.75;;;;;;;15.69;67.42;99607.13;5008566;28;20045;-73
2022/06/20 09:40:44;;;;;;;7.18;3.10;;;;;;;15.78;66.62;99621.59;5022958;28;20064;-71
2022/06/20 09:43:23;;;;;;;7.30;3.50;;;;;;;15.78;68.26;99619.78;5007797;28;20050;-72
2022/06/20 09:45:59;;;;;;;8.70;3.70;;;;;;;15.93;66.87;99628.44;5007039;28;20443;-70
2022/06/20 09:48:34;;;;;;;;;;;;;;;16.15;65.82;99632.16;5026979;28;20048;-70
2022/06/20 09:51:09;;;;;;;9.25;3.83;;;;;;;16.24;65.10;99634.97;5033523;28;20034;-70
2022/06/20 09:53:50;;;;;;;8.52;3.85;;;;;;;16.23;63.96;99632.44;5007916;28;20056;-70
2022/06/20 09:56:23;;;;;;;11.38;4.10;;;;;;;16.08;63.00;99631.75;5015689;28;20141;-71
2022/06/20 09:59:02;;;;;;;5.30;2.53;;;;;;;16.10;63.32;99632.50;5015284;28;20041;-71
2022/06/20 10:01:33;;;;;;;8.07;3.08;;;;;;;16.20;63.99;99622.88;5006722;28;20147;-70
2022/06/20 10:04:08;;;;;;;5.95;3.08;;;;;;;16.30;64.60;99623.88;5017893;28;20429;-70
2022/06/20 10:06:49;;;;;;;5.63;2.25;;;;;;;16.45;62.90;99621.84;5012275;28;20076;-71
2022/06/20 10:09:23;;;;;;;4.88;2.30;;;;;;;16.51;62.14;99620.53;5002797;28;20153;-71
2022/06/20 10:11:59;;;;;;;7.28;2.80;;;;;;;16.58;61.72;99620.91;5018154;28;20136;-72
2022/06/20 10:14:43;;;;;;;5.50;2.65;;;;;;;16.51;60.40;99640.03;5008197;28;20056;-70
2022/06/20 10:17:17;;;;;;;8.90;3.20;;;;;;;16.40;62.21;99641.81;5018135;28;20160;-70
2022/06/20 10:19:53;;;;;;;7.18;2.80;;;;;;;16.49;61.63;99636.63;5022516;28;20789;-71
2022/06/20 10:22:27;;;;;;;10.95;3.60;;;;;;;16.65;60.69;99633.63;5040085;28;20055;-71
2022/06/20 10:25:32;;;;;;;8.75;2.88;;;;;;;16.69;60.11;99627.13;5030095;28;20045;-70
2022/06/20 10:28:05;;;;;;;9.27;3.63;;;;;;;17.52;60.06;99623.28;5007738;28;20055;-71
2022/06/20 10:30:41;;;;;;;8.27;4.97;;;;;;;18.02;56.00;99620.13;5022552;28;20069;-71
2022/06/20 10:33:23;;;;;;;7.28;3.08;;;;;;;17.78;57.73;99629.13;5023781;28;20041;-71
2022/06/20 10:35:57;;;;;;;10.82;3.40;;;;;;;17.83;56.30;99631.47;5011380;28;20041;-71
2022/06/20 10:38:33;;;;;;;5.82;2.80;;;;;;;17.96;55.13;99637.47;5028321;28;20075;-71
2022/06/20 10:41:06;;;;;;;12.32;4.70;;;;;;;17.91;55.61;99654.84;5014514;28;20073;-71
2022/06/20 10:43:56;;;;;;;12.43;4.45;;;;;;;17.71;57.37;99649.28;5040397;28;20758;-70
2022/06/20 10:46:27;;;;;;;6.13;3.38;;;;;;;17.47;56.60;99653.91;5007994;28;20054;-72
2022/06/20 10:49:29;;;;;;;10.77;3.72;;;;;;;17.31;58.84;99654.31;5038091;28;20453;-71
2022/06/20 10:52:08;;;;;;;6.40;3.00;;;;;;;17.42;58.33;99654.28;5007931;28;20133;-71
2022/06/20 10:54:49;;;;;;;11.40;4.45;;;;;;;18.12;54.88;99650.41;5027828;28;20140;-69
2022/06/20 10:57:27;;;;;;;7.68;3.65;;;;;;;19.56;51.91;99645.22;5019549;28;20157;-70
2022/06/20 11:00:02;;;;;;;10.30;3.75;;;;;;;20.40;49.78;99646.59;5009596;28;20053;-73
2022/06/20 11:02:41;;;;;;;7.35;2.97;;;;;;;20.61;48.61;99647.31;5032974;28;20076;-69
2022/06/20 11:05:23;;;;;;;7.22;3.05;;;;;;;20.61;47.57;99651.84;5025773;28;20070;-70
2022/06/20 11:07:58;;;;;;;10.95;4.20;;;;;;;20.22;49.59;99658.03;5022879;28;20695;-70
2022/06/20 11:10:53;;;;;;;7.18;3.92;;;;;;;20.19;48.98;99654.78;5033824;28;20049;-70
2022/06/20 11:13:29;;;;;;;6.20;3.50;;;;;;;20.20;49.15;99654.63;5029534;28;20046;-70
2022/06/20 11:16:15;;;;;;;6.90;3.40;;;;;;;20.30;48.48;99644.75;5010697;28;20045;-70
2022/06/20 11:18:53;;;;;;;6.80;3.35;;;;;;;20.35;48.68;99647.03;4995579;28;20101;-71
2022/06/20 11:21:26;;;;;;;7.13;2.63;;;;;;;20.44;48.24;99656.06;5042228;28;20140;-71
2022/06/20 11:24:13;;;;;;;7.88;3.05;;;;;;;20.59;47.26;99649.28;4992040;28;20060;-70
2022/06/20 11:26:48;;;;;;;7.40;2.70;;;;;;;20.70;45.50;99651.81;5030451;28;20056;-71
2022/06/20 11:29:28;;;;;;;4.60;2.75;;;;;;;20.30;46.15;99642.09;5034910;28;20049;-70
2022/06/20 11:32:03;;;;;;;9.63;3.83;;;;;;;20.00;48.35;99640.41;5010143;28;20548;-71
2022/06/20 11:34:49;;;;;;;;;;;;;;;20.20;48.00;99638.56;5031671;28;20052;-71
2022/06/20 11:37:36;;;;;;;7.68;4.05;;;;;;;20.30;48.25;99627.88;5021541;28;20625;-70
2022/06/20 11:40:29;;;;;;;7.75;3.20;;;;;;;19.85;47.71;99637.28;5009270;28;20049;-71
2022/06/20 11:43:16;;;;;;;6.25;3.08;;;;;;;19.67;48.22;99633.56;5034813;28;20051;-71
2022/06/20 11:46:20;;;;;;;13.80;3.17;;;;;;;19.55;49.96;99630.16;5024318;28;20045;-71
2022/06/20 11:48:59;;;;;;;12.45;4.28;;;;;;;19.55;50.91;99635.50;4952207;28;20431;-72
2022/06/20 11:51:36;;;;;;;11.63;4.25;;;;;;;19.81;50.02;99632.34;4999883;28;20064;-69
2022/06/20 11:54:13;;;;;;;9.88;4.45;;;;;;;19.87;49.12;99635.31;5019699;28;20045;-72
2022/06/20 11:56:48;;;;;;;8.60;3.30;;;;;;;19.83;49.17;99635.72;5015884;28;20052;-71
2022/06/20 11:59:30;;;;;;;8.48;2.88;;;;;;;19.88;48.76;99633.47;5015754;28;20053;-70
2022/06/20 12:02:05;;;;;;;10.55;3.38;;;;;;;20.19;47.61;99633.38;5009421;28;20561;-71
2022/06/20 12:04:37;;;;;;;13.45;3.28;;;;;;;20.58;46.64;99631.53;5021077;28;20041;-73
2022/06/20 12:07:11;;;;;;;8.52;4.25;;;;;;;20.71;46.01;99632.06;5029294;28;20060;-72
2022/06/20 12:09:44;;;;;;;6.10;3.35;;;;;;;20.33;46.76;99625.75;5041132;28;20756;-71